createdAt,value
2023-04-26T00:00:54.986Z,19.22
2023-04-26T00:03:22.907Z,19.18
2023-04-26T00:05:50.388Z,19.19
2023-04-26T00:08:17.423Z,19.16
2023-04-26T00:10:44.320Z,19.11
2023-04-26T00:13:11.289Z,19.09
2023-04-26T00:15:38.057Z,19.03
2023-04-26T00:18:05.568Z,19.01
2023-04-26T00:20:32.335Z,18.99
2023-04-26T00:22:59.490Z,18.92
2023-04-26T00:25:26.439Z,18.88
2023-04-26T00:27:53.404Z,18.87
2023-04-26T00:30:20.888Z,18.90
2023-04-26T00:32:47.830Z,18.91
2023-04-26T00:35:14.866Z,18.97
2023-04-26T00:37:41.814Z,18.98
2023-04-26T00:40:09.902Z,18.94
2023-04-26T00:42:38.171Z,18.97
2023-04-26T00:45:06.900Z,19.00
2023-04-26T00:47:33.725Z,19.04
2023-04-26T00:50:00.826Z,19.03
2023-04-26T00:52:27.634Z,19.02
2023-04-26T00:54:55.871Z,19.03
2023-04-26T00:57:22.798Z,19.11
2023-04-26T00:59:49.742Z,19.16
2023-04-26T01:02:17.163Z,19.16
2023-04-26T01:04:45.170Z,19.17
2023-04-26T01:07:13.253Z,19.18
2023-04-26T01:09:40.219Z,19.17
2023-04-26T01:12:07.242Z,19.19
2023-04-26T01:14:36.273Z,19.18
2023-04-26T01:17:03.341Z,19.15
2023-04-26T01:19:31.954Z,19.12
2023-04-26T01:21:58.738Z,19.08
2023-04-26T01:24:25.575Z,19.11
2023-04-26T01:26:52.617Z,19.10
2023-04-26T01:29:20.811Z,19.06
2023-04-26T01:31:48.285Z,19.02
2023-04-26T01:34:15.246Z,18.91
2023-04-26T01:36:42.170Z,18.88
2023-04-26T01:39:09.094Z,18.84
2023-04-26T01:41:36.267Z,18.87
2023-04-26T01:44:03.416Z,18.93
2023-04-26T01:46:31.596Z,18.92
2023-04-26T01:48:58.693Z,18.88
2023-04-26T01:51:26.672Z,18.87
2023-04-26T01:53:53.620Z,18.87
2023-04-26T01:56:20.585Z,18.92
2023-04-26T01:58:47.563Z,18.98
2023-04-26T02:01:14.477Z,19.03
2023-04-26T02:03:41.378Z,19.05
2023-04-26T02:06:09.304Z,19.09
2023-04-26T02:08:36.465Z,19.19
2023-04-26T02:11:03.323Z,19.25
2023-04-26T02:13:30.754Z,19.22
2023-04-26T02:15:57.562Z,19.20
2023-04-26T02:18:24.862Z,19.21
2023-04-26T02:20:52.035Z,19.13
2023-04-26T02:23:19.394Z,19.14
2023-04-26T02:25:47.055Z,19.11
2023-04-26T02:28:14.210Z,19.00
2023-04-26T02:30:41.566Z,18.87
2023-04-26T02:33:09.208Z,18.77
2023-04-26T02:35:36.925Z,18.73
2023-04-26T02:38:04.429Z,18.80
2023-04-26T02:40:31.544Z,18.82
2023-04-26T02:42:58.502Z,18.88
2023-04-26T02:45:25.634Z,18.94
2023-04-26T02:47:53.217Z,18.95
2023-04-26T02:50:20.576Z,19.00
2023-04-26T02:52:47.754Z,19.04
2023-04-26T02:55:14.676Z,19.13
2023-04-26T02:57:41.847Z,19.21
2023-04-26T03:00:09.532Z,19.27
2023-04-26T03:02:37.505Z,19.31
2023-04-26T03:05:04.617Z,19.26
2023-04-26T03:07:32.535Z,19.23
2023-04-26T03:09:59.913Z,19.23
2023-04-26T03:12:26.730Z,19.21
2023-04-26T03:14:53.688Z,19.25
2023-04-26T03:17:21.125Z,19.29
2023-04-26T03:19:47.884Z,19.27
2023-04-26T03:22:15.841Z,19.30
2023-04-26T03:24:43.940Z,19.34
2023-04-26T03:27:11.567Z,19.34
2023-04-26T03:29:39.027Z,19.34
2023-04-26T03:32:06.815Z,19.37
2023-04-26T03:34:34.218Z,19.37
2023-04-26T03:37:01.686Z,19.42
2023-04-26T03:39:29.420Z,19.48
2023-04-26T03:41:56.636Z,19.48
2023-04-26T03:44:23.589Z,19.48
2023-04-26T03:46:50.601Z,19.51
2023-04-26T03:49:17.583Z,19.56
2023-04-26T03:51:44.513Z,19.58
2023-04-26T03:54:11.331Z,19.56
2023-04-26T03:56:39.649Z,19.60
2023-04-26T03:59:06.807Z,19.61
2023-04-26T04:01:34.282Z,19.59
2023-04-26T04:04:01.482Z,19.55
2023-04-26T04:06:29.563Z,19.47
2023-04-26T04:08:56.327Z,19.50
2023-04-26T04:11:24.053Z,19.58
2023-04-26T04:13:51.093Z,19.59
2023-04-26T04:16:18.213Z,19.61
2023-04-26T04:18:45.268Z,19.62
2023-04-26T04:21:12.089Z,19.60
2023-04-26T04:23:39.621Z,19.55
2023-04-26T04:26:09.672Z,19.55
2023-04-26T04:28:36.460Z,19.56
2023-04-26T04:31:03.595Z,19.59
2023-04-26T04:33:32.303Z,19.67
2023-04-26T04:35:59.996Z,19.72
2023-04-26T04:38:26.919Z,19.71
2023-04-26T04:40:54.042Z,19.70
2023-04-26T04:43:21.247Z,19.68
2023-04-26T04:45:49.034Z,19.71
2023-04-26T04:48:18.059Z,19.73
2023-04-26T04:50:46.492Z,19.74
2023-04-26T04:53:14.010Z,19.82
2023-04-26T04:55:41.057Z,19.89
2023-04-26T04:58:08.641Z,19.95
2023-04-26T05:00:37.507Z,19.97
2023-04-26T05:03:14.716Z,20.03
2023-04-26T05:05:41.702Z,20.02
2023-04-26T05:08:09.240Z,20.26
2023-04-26T05:10:36.427Z,20.32
2023-04-26T05:13:03.309Z,20.31
2023-04-26T05:15:30.412Z,20.30
2023-04-26T05:17:59.039Z,20.32
2023-04-26T05:20:26.077Z,20.33
2023-04-26T05:22:53.224Z,20.35
2023-04-26T05:25:22.496Z,20.34
2023-04-26T05:27:54.267Z,20.37
2023-04-26T05:30:47.369Z,20.36
2023-04-26T05:33:43.197Z,20.29
2023-04-26T05:36:17.032Z,20.23
2023-04-26T05:38:44.083Z,20.22
2023-04-26T05:41:11.263Z,20.22
2023-04-26T05:43:38.738Z,20.21
2023-04-26T05:46:06.192Z,20.28
2023-04-26T05:48:33.665Z,20.37
2023-04-26T05:51:00.812Z,20.48
2023-04-26T05:53:27.761Z,20.51
2023-04-26T05:55:54.808Z,20.58
2023-04-26T05:58:23.842Z,20.70
2023-04-26T06:00:50.700Z,20.81
2023-04-26T06:03:19.018Z,20.96
2023-04-26T06:05:46.177Z,21.07
2023-04-26T06:08:13.539Z,21.12
2023-04-26T06:10:40.614Z,21.13
2023-04-26T06:13:08.024Z,21.23
2023-04-26T06:15:36.004Z,21.23
2023-04-26T06:18:04.625Z,21.31
2023-04-26T06:20:32.531Z,21.38
2023-04-26T06:22:59.521Z,21.42
2023-04-26T06:25:26.576Z,21.49
2023-04-26T06:27:54.133Z,21.52
2023-04-26T06:30:21.029Z,21.42
2023-04-26T06:32:48.353Z,21.43
2023-04-26T06:35:16.041Z,21.47
2023-04-26T06:37:43.593Z,21.51
2023-04-26T06:40:13.519Z,21.57
2023-04-26T06:42:40.813Z,21.64
2023-04-26T06:45:18.363Z,21.69
2023-04-26T06:47:46.157Z,21.72
2023-04-26T06:50:14.043Z,21.75
2023-04-26T06:52:41.093Z,21.91
2023-04-26T06:55:08.477Z,22.01
2023-04-26T06:57:35.683Z,22.16
2023-04-26T07:00:03.759Z,22.28
2023-04-26T07:02:30.968Z,22.37
2023-04-26T07:04:57.969Z,22.50
2023-04-26T07:07:25.245Z,22.61
2023-04-26T07:09:52.416Z,22.71
2023-04-26T07:12:20.437Z,22.80
2023-04-26T07:14:47.283Z,22.90
2023-04-26T07:17:14.353Z,23.01
2023-04-26T07:19:41.654Z,23.18
2023-04-26T07:22:08.867Z,23.30
2023-04-26T07:24:36.455Z,23.42
2023-04-26T07:27:03.759Z,23.55
2023-04-26T07:29:30.704Z,23.62
2023-04-26T07:31:58.395Z,23.74
2023-04-26T07:34:25.307Z,23.96
2023-04-26T07:36:52.479Z,24.05
2023-04-26T07:39:19.397Z,24.11
2023-04-26T07:41:46.167Z,24.22
2023-04-26T07:44:13.010Z,24.30
2023-04-26T07:46:40.433Z,24.35
2023-04-26T07:49:07.676Z,24.40
2023-04-26T07:51:35.986Z,24.48
2023-04-26T07:54:02.974Z,24.55
2023-04-26T07:56:29.846Z,24.46
2023-04-26T07:58:56.753Z,24.39
2023-04-26T08:01:24.045Z,24.35
2023-04-26T08:03:51.126Z,24.33
2023-04-26T08:06:18.176Z,24.34
2023-04-26T08:08:48.928Z,24.25
2023-04-26T08:11:16.470Z,24.18
2023-04-26T08:13:43.571Z,24.20
2023-04-26T08:16:10.625Z,24.27
2023-04-26T08:18:37.495Z,24.32
2023-04-26T08:21:04.694Z,24.34
2023-04-26T08:23:36.051Z,24.35
2023-04-26T08:26:03.501Z,24.34
2023-04-26T08:28:30.348Z,24.32
2023-04-26T08:30:57.887Z,24.34
2023-04-26T08:33:25.167Z,24.31
2023-04-26T08:35:52.292Z,24.19
2023-04-26T08:38:19.329Z,24.15
2023-04-26T08:40:46.499Z,24.25
2023-04-26T08:43:13.385Z,24.29
2023-04-26T08:45:41.066Z,24.39
2023-04-26T08:48:11.311Z,24.39
2023-04-26T08:50:38.405Z,24.44
2023-04-26T08:53:05.667Z,24.50
2023-04-26T08:55:32.477Z,24.50
2023-04-26T08:57:59.347Z,24.46
2023-04-26T09:00:26.995Z,24.30
2023-04-26T09:02:54.148Z,24.19
2023-04-26T09:05:23.616Z,24.08
2023-04-26T09:07:51.072Z,23.98
2023-04-26T09:10:21.746Z,23.87
2023-04-26T09:12:51.836Z,23.75
2023-04-26T09:15:20.802Z,23.69
2023-04-26T09:17:49.185Z,23.67
2023-04-26T09:20:23.251Z,23.62
2023-04-26T09:22:51.361Z,23.63
2023-04-26T09:25:19.805Z,23.61
2023-04-26T09:27:46.834Z,23.53
2023-04-26T09:30:17.818Z,23.47
2023-04-26T09:33:11.129Z,23.36
2023-04-26T09:35:39.955Z,23.30
2023-04-26T09:38:14.762Z,23.25
2023-04-26T09:40:43.309Z,23.21
2023-04-26T09:43:13.852Z,23.32
2023-04-26T09:45:51.494Z,23.37
2023-04-26T09:48:30.071Z,23.42
2023-04-26T09:51:17.883Z,23.14
2023-04-26T09:53:49.437Z,23.09
2023-04-26T09:56:18.356Z,23.11
2023-04-26T09:58:57.774Z,23.07
2023-04-26T10:01:25.886Z,23.01
2023-04-26T10:03:53.140Z,22.96
2023-04-26T10:06:20.385Z,23.03
2023-04-26T10:08:47.613Z,23.09
2023-04-26T10:11:14.975Z,23.16
2023-04-26T10:13:42.491Z,23.27
2023-04-26T10:16:09.488Z,23.38
2023-04-26T10:18:36.986Z,23.49
2023-04-26T10:21:24.335Z,23.70
2023-04-26T10:23:51.202Z,23.90
2023-04-26T10:26:51.365Z,24.01
2023-04-26T10:29:21.742Z,24.25
2023-04-26T10:32:08.917Z,24.35
2023-04-26T10:34:36.953Z,24.38
2023-04-26T10:37:13.365Z,24.32
2023-04-26T10:39:41.531Z,24.30
2023-04-26T10:42:31.749Z,24.33
2023-04-26T10:44:59.307Z,24.37
2023-04-26T10:47:31.190Z,24.38
2023-04-26T10:50:05.637Z,24.41
2023-04-26T10:52:33.265Z,24.38
2023-04-26T10:55:00.216Z,24.31
2023-04-26T10:57:47.102Z,24.31
2023-04-26T11:00:25.437Z,24.32
2023-04-26T11:02:53.399Z,24.30
2023-04-26T11:05:42.078Z,24.40
2023-04-26T11:08:16.164Z,24.52
2023-04-26T11:10:46.023Z,24.62
2023-04-26T11:13:24.465Z,24.66
2023-04-26T11:15:54.969Z,24.66
2023-04-26T11:20:32.824Z,23.64
2023-04-26T11:22:59.912Z,24.82
2023-04-26T11:25:27.812Z,24.96
2023-04-26T11:28:02.096Z,25.01
2023-04-26T11:30:31.126Z,25.15
2023-04-26T11:32:59.223Z,25.19
2023-04-26T11:35:27.195Z,25.21
2023-04-26T11:37:54.104Z,25.17
2023-04-26T11:40:21.321Z,25.14
2023-04-26T11:42:48.503Z,25.17
2023-04-26T11:45:15.962Z,25.16
2023-04-26T11:47:44.175Z,25.15
2023-04-26T11:50:11.598Z,25.11
2023-04-26T11:52:38.829Z,25.07
2023-04-26T11:55:06.703Z,25.03
2023-04-26T11:57:34.283Z,24.95
2023-04-26T12:00:10.907Z,24.98
2023-04-26T12:02:39.061Z,24.94
2023-04-26T12:05:08.415Z,24.90
2023-04-26T12:07:37.109Z,24.84
2023-04-26T12:10:20.637Z,24.84
2023-04-26T12:12:50.588Z,24.85
2023-04-26T12:15:18.393Z,24.75
2023-04-26T12:18:14.747Z,24.71
2023-04-26T12:20:42.255Z,24.68
2023-04-26T12:23:12.545Z,24.61
2023-04-26T12:25:40.598Z,24.62
2023-04-26T12:28:11.957Z,24.56
2023-04-26T12:30:39.540Z,24.55
2023-04-26T12:33:16.658Z,24.55
2023-04-26T12:35:44.880Z,24.56
2023-04-26T12:38:12.821Z,24.50
2023-04-26T12:40:40.110Z,24.49
2023-04-26T12:43:07.328Z,24.48
2023-04-26T12:45:34.295Z,24.45
2023-04-26T12:48:01.650Z,24.46
2023-04-26T12:50:29.136Z,24.48
2023-04-26T12:52:56.217Z,24.51
2023-04-26T12:55:23.610Z,24.53
2023-04-26T12:57:50.550Z,24.55
2023-04-26T13:00:18.015Z,24.51
2023-04-26T13:02:45.925Z,24.44
2023-04-26T13:05:12.764Z,24.36
2023-04-26T13:07:42.184Z,24.38
2023-04-26T13:10:12.037Z,24.23
2023-04-26T13:12:40.489Z,24.06
2023-04-26T13:15:08.037Z,23.94
2023-04-26T13:17:38.728Z,23.87
2023-04-26T13:20:06.546Z,23.81
2023-04-26T13:22:33.644Z,23.72
2023-04-26T13:25:00.528Z,23.67
2023-04-26T13:27:29.860Z,23.55
2023-04-26T13:29:58.142Z,23.51
2023-04-26T13:32:25.093Z,23.47
2023-04-26T13:34:52.802Z,23.43
2023-04-26T13:37:20.805Z,23.40
2023-04-26T13:39:47.673Z,23.37
2023-04-26T13:42:15.769Z,23.26
2023-04-26T13:44:42.760Z,23.13
2023-04-26T13:47:09.626Z,23.12
2023-04-26T13:49:38.192Z,23.11
2023-04-26T13:52:05.413Z,23.06
2023-04-26T13:54:32.512Z,22.95
2023-04-26T13:56:59.425Z,22.89
2023-04-26T13:59:26.346Z,22.81
2023-04-26T14:01:55.123Z,22.77
2023-04-26T14:04:24.258Z,22.75
2023-04-26T14:06:51.970Z,22.87
2023-04-26T14:09:18.997Z,22.81
2023-04-26T14:11:51.539Z,22.79
2023-04-26T14:14:24.491Z,22.81
2023-04-26T14:16:51.389Z,22.78
2023-04-26T14:19:18.232Z,22.68
2023-04-26T14:21:45.538Z,22.71
2023-04-26T14:24:12.764Z,22.65
2023-04-26T14:26:39.937Z,22.60
2023-04-26T14:29:06.798Z,22.53
2023-04-26T14:31:33.760Z,22.60
2023-04-26T14:34:00.809Z,22.59
2023-04-26T14:36:27.693Z,22.53
2023-04-26T14:38:55.091Z,22.51
2023-04-26T14:41:23.002Z,22.46
2023-04-26T14:43:50.400Z,22.48
2023-04-26T14:46:17.382Z,22.52
2023-04-26T14:48:44.476Z,22.50
2023-04-26T14:51:11.790Z,22.54
2023-04-26T14:53:38.779Z,22.49
2023-04-26T14:56:06.946Z,22.41
2023-04-26T14:58:34.204Z,22.41
2023-04-26T15:01:01.897Z,22.41
2023-04-26T15:03:29.220Z,22.43
2023-04-26T15:05:56.277Z,22.38
2023-04-26T15:08:23.065Z,22.33
2023-04-26T15:10:50.939Z,22.34
2023-04-26T15:13:18.066Z,22.41
2023-04-26T15:15:45.316Z,22.50
2023-04-26T15:18:12.143Z,22.51
2023-04-26T15:20:40.516Z,22.47
2023-04-26T15:23:07.907Z,22.46
2023-04-26T15:25:36.353Z,22.43
2023-04-26T15:28:03.990Z,22.42
2023-04-26T15:30:31.098Z,22.43
2023-04-26T15:32:58.113Z,22.48
2023-04-26T15:35:25.436Z,22.54
2023-04-26T15:37:53.398Z,22.56
2023-04-26T15:40:20.850Z,22.56
2023-04-26T15:42:48.787Z,22.57
2023-04-26T15:45:15.884Z,22.48
2023-04-26T15:47:42.864Z,22.47
2023-04-26T15:50:10.309Z,22.47
2023-04-26T15:52:39.233Z,22.46
2023-04-26T15:55:06.801Z,22.50
2023-04-26T15:57:34.150Z,22.49
2023-04-26T16:00:01.502Z,22.49
2023-04-26T16:02:31.914Z,22.53
2023-04-26T16:04:59.122Z,22.58
2023-04-26T16:07:25.922Z,22.59
2023-04-26T16:09:52.670Z,22.62
2023-04-26T16:12:19.796Z,22.63
2023-04-26T16:14:48.387Z,22.62
2023-04-26T16:17:15.520Z,22.60
2023-04-26T16:19:42.414Z,22.62
2023-04-26T16:22:09.370Z,22.65
2023-04-26T16:24:36.700Z,22.72
2023-04-26T16:27:04.306Z,22.77
2023-04-26T16:29:31.445Z,22.74
2023-04-26T16:31:58.600Z,22.71
2023-04-26T16:34:26.352Z,22.61
2023-04-26T16:36:53.399Z,22.62
2023-04-26T16:39:20.962Z,22.63
2023-04-26T16:41:47.915Z,22.60
2023-04-26T16:44:16.012Z,22.59
2023-04-26T16:46:43.436Z,22.66
2023-04-26T16:49:11.027Z,22.65
2023-04-26T16:51:37.867Z,22.62
2023-04-26T16:54:04.996Z,22.60
2023-04-26T16:56:32.095Z,22.52
2023-04-26T16:58:59.194Z,22.51
2023-04-26T17:01:26.420Z,22.51
2023-04-26T17:03:53.711Z,22.46
2023-04-26T17:06:20.952Z,22.45
2023-04-26T17:08:47.945Z,22.47
2023-04-26T17:11:17.573Z,22.48
2023-04-26T17:13:44.546Z,22.43
2023-04-26T17:16:11.915Z,22.35
2023-04-26T17:18:39.318Z,22.29
2023-04-26T17:21:06.563Z,22.23
2023-04-26T17:23:34.148Z,22.19
2023-04-26T17:26:01.559Z,22.13
2023-04-26T17:28:28.935Z,22.04
2023-04-26T17:30:55.923Z,21.99
2023-04-26T17:33:25.043Z,22.01
2023-04-26T17:35:51.757Z,22.03
2023-04-26T17:38:19.084Z,22.11
2023-04-26T17:40:46.194Z,22.01
2023-04-26T17:43:13.149Z,21.92
2023-04-26T17:45:40.219Z,21.82
2023-04-26T17:48:12.273Z,21.75
2023-04-26T17:50:39.388Z,21.66
2023-04-26T17:53:06.688Z,21.53
2023-04-26T17:55:34.376Z,21.48
2023-04-26T17:58:01.222Z,21.43
2023-04-26T18:00:28.074Z,21.38
2023-04-26T18:02:57.215Z,21.35
2023-04-26T18:05:24.409Z,21.34
2023-04-26T18:07:51.768Z,21.30
2023-04-26T18:10:18.742Z,21.30
2023-04-26T18:12:45.746Z,21.32
2023-04-26T18:15:13.291Z,21.39
2023-04-26T18:17:40.794Z,21.36
2023-04-26T18:20:08.764Z,21.29
2023-04-26T18:22:36.566Z,21.25
2023-04-26T18:25:03.880Z,21.25
2023-04-26T18:27:31.344Z,21.23
2023-04-26T18:29:58.406Z,21.16
2023-04-26T18:32:25.903Z,21.04
2023-04-26T18:34:52.964Z,20.99
2023-04-26T18:37:19.777Z,20.99
2023-04-26T18:39:48.083Z,20.99
2023-04-26T18:42:15.271Z,20.95
2023-04-26T18:44:42.090Z,20.95
2023-04-26T18:47:09.152Z,20.92
2023-04-26T18:49:36.156Z,20.90
2023-04-26T18:52:03.513Z,20.90
2023-04-26T18:54:31.674Z,20.93
2023-04-26T18:56:58.426Z,20.94
2023-04-26T18:59:25.787Z,21.00
2023-04-26T19:01:53.796Z,20.99
2023-04-26T19:04:21.343Z,21.03
2023-04-26T19:06:48.238Z,21.10
2023-04-26T19:09:16.217Z,21.13
2023-04-26T19:11:43.101Z,21.14
2023-04-26T19:14:09.982Z,21.17
2023-04-26T19:16:38.067Z,21.18
2023-04-26T19:19:05.205Z,21.19
2023-04-26T19:21:32.719Z,21.24
2023-04-26T19:23:59.624Z,21.27
2023-04-26T19:26:26.726Z,21.27
2023-04-26T19:28:55.247Z,21.29
2023-04-26T19:31:22.765Z,21.30
2023-04-26T19:33:49.885Z,21.29
2023-04-26T19:36:19.008Z,21.32
2023-04-26T19:38:48.060Z,21.31
2023-04-26T19:41:15.218Z,21.30
2023-04-26T19:43:42.004Z,21.29
2023-04-26T19:46:14.905Z,21.28
2023-04-26T19:48:41.839Z,21.26
2023-04-26T19:51:13.940Z,21.20
2023-04-26T19:53:40.826Z,21.14
2023-04-26T19:56:13.049Z,21.13
2023-04-26T19:58:41.353Z,21.16
2023-04-26T20:01:08.517Z,21.20
2023-04-26T20:03:37.672Z,21.22
2023-04-26T20:06:05.011Z,21.22
2023-04-26T20:08:32.064Z,21.21
2023-04-26T20:11:03.033Z,21.15
2023-04-26T20:13:30.803Z,21.20
2023-04-26T20:15:58.234Z,21.20
2023-04-26T20:18:25.203Z,21.26
2023-04-26T20:20:51.992Z,21.25
2023-04-26T20:23:18.980Z,21.17
2023-04-26T20:25:45.825Z,21.18
2023-04-26T20:28:12.656Z,21.17
2023-04-26T20:30:39.912Z,21.16
2023-04-26T20:33:07.218Z,21.21
2023-04-26T20:35:34.189Z,21.23
2023-04-26T20:38:01.101Z,21.19
2023-04-26T20:40:27.955Z,21.17
2023-04-26T20:42:55.083Z,21.23
2023-04-26T20:45:21.922Z,21.19
2023-04-26T20:47:48.756Z,20.99
2023-04-26T20:50:15.669Z,20.78
2023-04-26T20:52:42.849Z,20.66
2023-04-26T20:55:10.002Z,20.46
2023-04-26T20:57:37.933Z,20.21
2023-04-26T21:00:06.993Z,20.10
2023-04-26T21:02:34.483Z,19.95
2023-04-26T21:05:01.406Z,19.85
2023-04-26T21:07:28.486Z,19.69
2023-04-26T21:09:55.270Z,19.66
2023-04-26T21:12:22.242Z,19.64
2023-04-26T21:14:49.199Z,19.53
2023-04-26T21:17:16.043Z,19.49
2023-04-26T21:19:44.038Z,19.43
2023-04-26T21:22:11.287Z,19.42
2023-04-26T21:24:38.206Z,19.41
2023-04-26T21:27:05.159Z,19.41
2023-04-26T21:29:32.746Z,19.44
2023-04-26T21:31:59.879Z,19.44
2023-04-26T21:34:27.336Z,19.42
2023-04-26T21:36:54.409Z,19.30
2023-04-26T21:39:21.511Z,19.13
2023-04-26T21:41:48.299Z,18.94
2023-04-26T21:44:15.295Z,18.84
2023-04-26T21:46:42.165Z,18.70
2023-04-26T21:49:09.898Z,18.64
2023-04-26T21:51:36.883Z,18.63
2023-04-26T21:54:03.753Z,18.61
2023-04-26T21:56:30.750Z,18.55
2023-04-26T21:58:57.729Z,18.48
2023-04-26T22:01:24.806Z,18.44
2023-04-26T22:03:51.688Z,18.35
2023-04-26T22:06:18.745Z,18.30
2023-04-26T22:08:46.834Z,18.27
2023-04-26T22:11:13.740Z,18.13
2023-04-26T22:13:40.971Z,18.03
2023-04-26T22:16:07.754Z,17.97
2023-04-26T22:18:35.147Z,17.89
2023-04-26T22:21:02.311Z,17.87
2023-04-26T22:23:30.782Z,17.85
2023-04-26T22:26:00.144Z,17.86
2023-04-26T22:28:26.982Z,17.90
2023-04-26T22:30:53.777Z,17.87
2023-04-26T22:33:20.982Z,17.88
2023-04-26T22:35:47.901Z,17.86
2023-04-26T22:38:14.998Z,17.83
2023-04-26T22:40:41.794Z,17.83
2023-04-26T22:43:08.693Z,17.77
2023-04-26T22:45:36.059Z,17.76
2023-04-26T22:48:03.305Z,17.79
2023-04-26T22:50:30.465Z,17.76
2023-04-26T22:52:57.301Z,17.77
2023-04-26T22:55:24.416Z,17.83
2023-04-26T22:57:51.250Z,17.80
2023-04-26T23:00:19.429Z,17.77
2023-04-26T23:02:46.500Z,17.75
2023-04-26T23:05:13.316Z,17.73
2023-04-26T23:07:40.395Z,17.64
2023-04-26T23:10:07.989Z,17.58
2023-04-26T23:12:35.597Z,17.54
2023-04-26T23:15:04.541Z,17.44
2023-04-26T23:17:33.417Z,17.40
2023-04-26T23:20:00.347Z,17.41
2023-04-26T23:22:27.694Z,17.30
2023-04-26T23:24:54.506Z,17.27
2023-04-26T23:27:21.500Z,17.24
2023-04-26T23:29:49.345Z,17.12
2023-04-26T23:32:16.034Z,16.99
2023-04-26T23:36:12.305Z,15.98
2023-04-26T23:38:39.434Z,16.98
2023-04-26T23:41:06.685Z,16.96
2023-04-26T23:43:33.971Z,16.97
2023-04-26T23:46:01.188Z,16.91
2023-04-26T23:48:28.820Z,16.99
2023-04-26T23:50:56.163Z,16.86
2023-04-26T23:53:23.177Z,16.83
2023-04-26T23:55:50.213Z,16.84
2023-04-26T23:58:17.264Z,16.81
